createdAt,value
2018-12-07T07:25:58.035Z,38.67
2018-12-07T07:28:55.675Z,40.97
2018-12-07T07:31:23.891Z,44.37
2018-12-07T07:33:52.143Z,41.20
2018-12-07T07:36:20.369Z,38.90
2018-12-07T07:38:48.608Z,43.10
2018-12-07T07:41:16.826Z,41.47
2018-12-07T07:43:45.971Z,37.00
2018-12-07T07:46:14.429Z,37.23
2018-12-07T07:48:42.663Z,32.73
2018-12-07T07:51:10.895Z,29.00
2018-12-07T07:53:39.139Z,30.70
2018-12-07T07:56:12.164Z,32.53
2018-12-07T07:58:37.747Z,33.67
2018-12-07T08:01:05.975Z,29.83
2018-12-07T08:03:34.227Z,31.73
2018-12-07T08:06:02.463Z,30.80
2018-12-07T08:08:30.724Z,33.40
2018-12-07T08:10:59.099Z,30.43
2018-12-07T08:13:27.344Z,29.13
2018-12-07T08:15:55.575Z,26.90
2018-12-07T08:18:23.823Z,24.17
2018-12-07T08:20:52.051Z,24.07
2018-12-07T08:23:20.284Z,26.83
2018-12-07T08:25:48.530Z,27.00
2018-12-07T08:28:16.771Z,26.07
2018-12-07T08:30:45.108Z,28.10
2018-12-07T08:33:13.336Z,28.93
2018-12-07T08:35:41.667Z,24.83
2018-12-07T08:38:09.894Z,23.33
2018-12-07T08:40:38.145Z,24.70
2018-12-07T08:43:06.398Z,22.47
2018-12-07T08:45:34.659Z,23.87
2018-12-07T08:48:03.048Z,20.87
2018-12-07T08:50:31.380Z,17.97
2018-12-07T08:52:59.768Z,23.23
2018-12-07T08:55:28.100Z,19.00
2018-12-07T08:57:56.332Z,21.43
2018-12-07T09:00:24.748Z,17.53
2018-12-07T09:02:52.980Z,20.27
2018-12-07T09:05:21.327Z,17.77
2018-12-07T09:07:49.727Z,18.40
2018-12-07T09:10:17.975Z,16.30
2018-12-07T09:12:46.212Z,17.13
2018-12-07T09:15:14.464Z,18.97
2018-12-07T09:17:42.779Z,18.77
2018-12-07T09:20:11.104Z,17.00
2018-12-07T09:22:39.343Z,16.50
2018-12-07T09:25:07.760Z,18.80
2018-12-07T09:27:35.991Z,16.90
2018-12-07T09:30:04.656Z,17.03
2018-12-07T09:32:32.907Z,14.53
2018-12-07T09:35:01.195Z,15.07
2018-12-07T09:37:29.432Z,14.80
2018-12-07T09:39:57.751Z,14.83
2018-12-07T09:42:26.079Z,16.57
2018-12-07T09:44:54.324Z,17.17
2018-12-07T09:47:22.576Z,14.63
2018-12-07T09:49:50.807Z,13.10
2018-12-07T09:52:19.150Z,15.27
2018-12-07T09:54:47.388Z,13.30
2018-12-07T09:57:15.640Z,13.43
2018-12-07T09:59:50.524Z,12.03
2018-12-07T10:02:18.864Z,12.33
2018-12-07T10:04:47.195Z,11.67
2018-12-07T10:07:15.450Z,10.67
2018-12-07T10:09:43.773Z,10.93
2018-12-07T10:12:12.015Z,12.27
2018-12-07T10:14:40.331Z,14.73
2018-12-07T10:17:08.660Z,11.07
2018-12-07T10:19:36.973Z,11.57
2018-12-07T10:22:05.308Z,11.83
2018-12-07T10:24:33.631Z,11.77
2018-12-07T10:27:06.319Z,10.93
2018-12-07T10:29:34.957Z,11.30
2018-12-07T10:32:03.956Z,10.87
2018-12-07T10:34:32.243Z,9.93
2018-12-07T10:37:06.095Z,10.40
2018-12-07T10:39:34.311Z,9.97
2018-12-07T10:42:02.572Z,9.83
2018-12-07T10:44:30.804Z,9.77
2018-12-07T10:46:59.031Z,9.03
2018-12-07T10:49:27.279Z,9.47
2018-12-07T10:51:55.496Z,8.77
2018-12-07T10:54:23.812Z,8.20
2018-12-07T10:56:52.039Z,7.53
2018-12-07T10:59:20.363Z,8.53
2018-12-07T11:01:54.172Z,8.07
2018-12-07T11:04:27.908Z,7.23
2018-12-07T11:07:01.604Z,6.37
2018-12-07T11:09:34.088Z,6.43
2018-12-07T11:12:08.282Z,6.80
2018-12-07T11:14:42.073Z,5.90
2018-12-07T11:17:15.719Z,15.37
2018-12-07T11:19:49.636Z,5.50
2018-12-07T11:22:23.237Z,5.40
2018-12-07T11:24:56.830Z,5.30
2018-12-07T11:27:30.456Z,5.20
2018-12-07T11:30:04.091Z,4.40
2018-12-07T11:32:35.471Z,4.90
2018-12-07T11:35:09.064Z,4.63
2018-12-07T11:37:37.283Z,4.27
2018-12-07T11:40:06.924Z,4.13
2018-12-07T11:42:35.147Z,4.93
2018-12-07T11:45:03.680Z,6.83
2018-12-07T11:47:31.891Z,3.27
2018-12-07T11:50:00.225Z,4.43
2018-12-07T11:52:28.451Z,3.47
2018-12-07T11:54:56.692Z,3.77
2018-12-07T11:57:24.911Z,3.90
2018-12-07T11:59:53.151Z,3.57
2018-12-07T12:02:26.318Z,3.93
2018-12-07T12:04:51.752Z,3.50
2018-12-07T12:07:19.967Z,3.20
2018-12-07T12:09:48.180Z,3.17
2018-12-07T12:12:16.433Z,2.93
2018-12-07T12:14:44.663Z,2.93
2018-12-07T12:17:12.900Z,3.90
2018-12-07T12:19:41.130Z,3.13
2018-12-07T12:22:09.480Z,3.67
2018-12-07T12:24:37.732Z,2.47
2018-12-07T12:27:05.975Z,2.60
2018-12-07T12:29:34.201Z,3.23
2018-12-07T12:32:02.444Z,2.70
2018-12-07T12:34:30.672Z,2.57
2018-12-07T12:36:58.924Z,3.33
2018-12-07T12:39:27.153Z,2.57
2018-12-07T12:41:55.395Z,2.60
2018-12-07T12:44:23.633Z,2.30
2018-12-07T12:46:51.884Z,2.40
2018-12-07T12:49:20.121Z,4.30
2018-12-07T12:51:48.369Z,2.40
2018-12-07T12:54:16.676Z,2.50
2018-12-07T12:56:44.924Z,2.30
2018-12-07T12:59:13.151Z,2.80
2018-12-07T13:01:41.492Z,2.40
2018-12-07T13:04:10.015Z,2.27
2018-12-07T13:06:38.284Z,3.50
2018-12-07T13:09:07.926Z,2.53
2018-12-07T13:11:36.185Z,2.40
2018-12-07T13:14:04.587Z,2.90
2018-12-07T13:16:32.891Z,2.40
2018-12-07T13:19:01.134Z,2.50
2018-12-07T13:21:29.361Z,2.60
2018-12-07T13:23:57.600Z,2.60
2018-12-07T13:26:25.833Z,2.77
2018-12-07T13:28:54.063Z,3.00
2018-12-07T13:31:22.285Z,3.57
2018-12-07T13:33:50.614Z,3.33
2018-12-07T13:36:18.842Z,3.27
2018-12-07T13:38:47.087Z,4.67
2018-12-07T13:41:15.340Z,3.63
2018-12-07T13:43:43.646Z,3.53
2018-12-07T13:46:11.980Z,3.40
2018-12-07T13:48:40.464Z,3.97
2018-12-07T13:51:08.769Z,4.40
2018-12-07T13:53:38.146Z,4.10
2018-12-07T13:56:07.051Z,4.53
2018-12-07T13:58:35.581Z,4.40
2018-12-07T14:01:04.096Z,6.93
2018-12-07T14:03:32.456Z,5.00
2018-12-07T14:06:00.889Z,4.73
2018-12-07T14:08:29.395Z,6.40
2018-12-07T14:10:57.702Z,5.47
2018-12-07T14:13:26.268Z,5.30
2018-12-07T14:15:54.606Z,5.77
2018-12-07T14:18:23.068Z,6.77
2018-12-07T14:20:51.392Z,6.90
2018-12-07T14:23:19.665Z,6.10
2018-12-07T14:25:48.000Z,5.53
2018-12-07T14:28:16.267Z,6.13
2018-12-07T14:30:44.619Z,6.10
2018-12-07T14:33:13.078Z,6.50
2018-12-07T14:35:41.609Z,6.87
2018-12-07T14:38:09.848Z,5.70
2018-12-07T14:40:44.970Z,6.50
2018-12-07T14:43:13.488Z,6.60
2018-12-07T14:45:41.926Z,6.30
2018-12-07T14:48:10.453Z,5.83
2018-12-07T14:50:38.920Z,6.67
2018-12-07T14:53:07.409Z,6.27
2018-12-07T14:55:35.839Z,6.03
2018-12-07T14:58:04.175Z,8.00
2018-12-07T15:00:32.694Z,6.00
2018-12-07T15:03:01.034Z,7.30
2018-12-07T15:05:29.523Z,5.70
2018-12-07T15:07:57.877Z,5.87
2018-12-07T15:10:26.479Z,5.30
2018-12-07T15:12:55.011Z,5.90
2018-12-07T15:15:23.575Z,5.63
2018-12-07T15:17:52.207Z,6.20
2018-12-07T15:20:20.909Z,7.80
2018-12-07T15:22:49.598Z,7.40
2018-12-07T15:25:18.293Z,9.00
2018-12-07T15:27:46.749Z,8.23
2018-12-07T15:30:15.196Z,6.43
2018-12-07T15:32:43.539Z,5.90
2018-12-07T15:35:11.988Z,7.03
2018-12-07T15:37:40.402Z,7.33
2018-12-07T15:40:09.975Z,5.80
2018-12-07T15:42:39.854Z,7.43
2018-12-07T15:45:08.974Z,6.33
2018-12-07T15:47:37.415Z,7.03
2018-12-07T15:50:07.990Z,6.73
2018-12-07T15:52:36.327Z,7.63
2018-12-07T15:55:05.048Z,8.23
2018-12-07T15:57:33.388Z,7.03
2018-12-07T16:00:01.836Z,7.13
2018-12-07T16:02:30.379Z,7.30
2018-12-07T16:04:58.986Z,7.53
2018-12-07T16:07:27.392Z,7.83
2018-12-07T16:09:55.759Z,8.17
2018-12-07T16:12:24.170Z,7.97
2018-12-07T16:14:52.479Z,8.03
2018-12-07T16:17:20.839Z,7.77
2018-12-07T16:19:49.171Z,8.30
2018-12-07T16:22:17.508Z,8.97
2018-12-07T16:24:45.808Z,8.00
2018-12-07T16:27:14.283Z,9.47
2018-12-07T16:29:42.648Z,10.17
2018-12-07T16:32:11.038Z,9.33
2018-12-07T16:34:39.588Z,9.93
2018-12-07T16:37:08.068Z,10.10
2018-12-07T16:39:36.686Z,11.13
2018-12-07T16:42:05.294Z,10.30
2018-12-07T16:44:33.666Z,10.97
2018-12-07T16:47:02.181Z,9.87
2018-12-07T16:49:30.533Z,9.73
2018-12-07T16:51:59.101Z,8.57
2018-12-07T16:54:27.507Z,8.77
2018-12-07T16:56:55.974Z,10.93
2018-12-07T16:59:24.649Z,8.67
2018-12-07T17:01:53.525Z,9.27
2018-12-07T17:04:21.848Z,8.83
2018-12-07T17:06:50.153Z,8.13
2018-12-07T17:09:18.525Z,8.23
2018-12-07T17:11:47.068Z,7.93
2018-12-07T17:14:15.411Z,8.40
2018-12-07T17:16:43.641Z,7.43
2018-12-07T17:19:11.897Z,7.00
2018-12-07T17:21:40.156Z,7.23
2018-12-07T17:24:08.495Z,7.00
2018-12-07T17:26:36.719Z,7.93
2018-12-07T17:29:04.960Z,6.43
2018-12-07T17:31:33.602Z,6.90
2018-12-07T17:34:02.383Z,7.57
2018-12-07T17:36:30.750Z,6.27
2018-12-07T17:38:59.278Z,7.50
2018-12-07T17:41:27.651Z,7.13
2018-12-07T17:43:56.137Z,7.30
2018-12-07T17:46:24.678Z,6.27
2018-12-07T17:48:52.951Z,5.80
2018-12-07T17:51:21.213Z,6.07
2018-12-07T17:53:49.544Z,5.70
2018-12-07T17:56:17.949Z,5.83
2018-12-07T17:58:46.530Z,10.53
2018-12-07T18:01:15.002Z,5.30
2018-12-07T18:03:43.218Z,4.70
2018-12-07T18:06:11.508Z,5.20
2018-12-07T18:08:40.115Z,5.53
2018-12-07T18:11:08.403Z,7.30
2018-12-07T18:13:36.818Z,5.03
2018-12-07T18:16:05.227Z,6.63
2018-12-07T18:18:33.869Z,4.53
2018-12-07T18:21:02.468Z,5.03
2018-12-07T18:23:31.035Z,7.00
2018-12-07T18:25:59.509Z,7.30
2018-12-07T18:28:27.985Z,5.73
2018-12-07T18:30:56.333Z,5.10
2018-12-07T18:33:24.751Z,4.63
2018-12-07T18:35:53.293Z,6.87
2018-12-07T18:38:21.634Z,5.40
2018-12-07T18:40:49.930Z,7.23
2018-12-07T18:43:18.311Z,4.90
2018-12-07T18:45:46.597Z,5.40
2018-12-07T18:48:15.090Z,5.33
2018-12-07T18:50:43.443Z,10.67
2018-12-07T18:53:12.146Z,5.73
2018-12-07T18:55:40.627Z,9.93
2018-12-07T18:58:09.293Z,6.37
2018-12-07T19:00:37.713Z,6.00
2018-12-07T19:03:06.272Z,6.13
2018-12-07T19:05:34.632Z,6.93
2018-12-07T19:08:03.215Z,7.33
2018-12-07T19:10:31.599Z,12.13
2018-12-07T19:13:00.541Z,5.60
2018-12-07T19:15:29.090Z,6.70
2018-12-07T19:17:57.405Z,7.80
2018-12-07T19:20:25.968Z,6.30
2018-12-07T19:22:54.515Z,6.80
2018-12-07T19:25:23.133Z,5.63
2018-12-07T19:27:51.702Z,6.50
2018-12-07T19:30:20.241Z,9.20
2018-12-07T19:32:48.623Z,6.73
2018-12-07T19:35:17.294Z,7.40
2018-12-07T19:37:45.808Z,8.77
2018-12-07T19:40:14.467Z,6.90
2018-12-07T19:42:43.078Z,5.70
2018-12-07T19:45:11.673Z,7.07
2018-12-07T19:47:40.191Z,6.53
2018-12-07T19:50:09.050Z,7.47
2018-12-07T19:52:37.606Z,7.33
2018-12-07T19:55:06.447Z,6.43
2018-12-07T19:57:34.977Z,6.60
2018-12-07T20:00:04.025Z,9.63
2018-12-07T20:02:32.444Z,5.50
2018-12-07T20:05:00.896Z,6.43
2018-12-07T20:07:29.628Z,6.17
2018-12-07T20:09:58.119Z,6.17
2018-12-07T20:12:26.807Z,7.40
2018-12-07T20:14:55.240Z,7.77
2018-12-07T20:17:23.535Z,5.57
2018-12-07T20:19:51.808Z,5.43
2018-12-07T20:22:20.104Z,6.00
2018-12-07T20:24:48.474Z,6.80
2018-12-07T20:27:16.933Z,6.27
2018-12-07T20:29:45.247Z,4.90
2018-12-07T20:32:13.471Z,6.47
2018-12-07T20:34:41.720Z,5.33
2018-12-07T20:37:10.154Z,5.63
2018-12-07T20:39:38.755Z,5.40
2018-12-07T20:42:07.286Z,5.10
2018-12-07T20:44:35.759Z,6.23
2018-12-07T20:47:04.046Z,4.20
2018-12-07T20:49:32.617Z,4.67
2018-12-07T20:52:01.118Z,5.07
2018-12-07T20:54:29.565Z,4.23
2018-12-07T20:56:57.813Z,4.50
2018-12-07T20:59:26.236Z,4.20
2018-12-07T21:01:54.658Z,4.10
2018-12-07T21:04:34.142Z,9.27
2018-12-07T21:08:15.387Z,5.60
2018-12-07T21:11:33.436Z,3.70
2018-12-07T21:14:09.960Z,6.03
